createdAt,value
2018-08-10T00:00:21.912Z,0
2018-08-10T00:00:54.000Z,0
2018-08-10T00:01:26.066Z,0
2018-08-10T00:01:58.151Z,0
2018-08-10T00:02:30.244Z,0
2018-08-10T00:03:02.333Z,0
2018-08-10T00:03:34.422Z,0
2018-08-10T00:04:06.501Z,0
2018-08-10T00:05:58.253Z,0
2018-08-10T00:06:30.347Z,0
2018-08-10T00:07:02.444Z,0
2018-08-10T00:07:34.531Z,0
2018-08-10T00:08:06.584Z,0
2018-08-10T00:08:38.647Z,0
2018-08-10T00:09:10.747Z,0
2018-08-10T00:09:42.833Z,0
2018-08-10T00:10:14.917Z,0
2018-08-10T00:10:47.021Z,0
2018-08-10T00:11:19.126Z,0
2018-08-10T00:11:51.194Z,0
2018-08-10T00:12:23.282Z,0
2018-08-10T00:12:55.357Z,0
2018-08-10T00:13:27.487Z,0
2018-08-10T00:13:59.536Z,0
2018-08-10T00:14:31.638Z,0
2018-08-10T00:17:42.739Z,0
2018-08-10T00:18:14.815Z,0
2018-08-10T00:18:46.915Z,0
2018-08-10T00:19:19.029Z,0
2018-08-10T00:19:51.119Z,0
2018-08-10T00:20:23.184Z,0
2018-08-10T00:20:55.286Z,0
2018-08-10T00:21:27.372Z,0
2018-08-10T00:21:59.484Z,0
2018-08-10T00:22:31.562Z,0
2018-08-10T00:23:03.663Z,0
2018-08-10T00:24:55.117Z,0
2018-08-10T00:25:27.173Z,0
2018-08-10T00:25:59.263Z,0
2018-08-10T00:26:31.334Z,0
2018-08-10T00:27:03.425Z,0
2018-08-10T00:27:35.512Z,0
2018-08-10T00:28:07.606Z,0
2018-08-10T00:28:39.683Z,0
2018-08-10T00:29:11.765Z,0
2018-08-10T00:29:43.847Z,0
2018-08-10T00:30:15.939Z,0
2018-08-10T00:30:48.019Z,0
2018-08-10T00:31:20.101Z,0
2018-08-10T00:31:52.204Z,0
2018-08-10T00:32:24.299Z,0
2018-08-10T00:32:56.385Z,0
2018-08-10T00:34:47.935Z,0
2018-08-10T00:35:20.021Z,0
2018-08-10T00:35:52.096Z,0
2018-08-10T00:36:24.194Z,0
2018-08-10T00:36:56.273Z,0
2018-08-10T00:37:28.350Z,0
2018-08-10T00:38:00.440Z,0
2018-08-10T00:38:32.534Z,0
2018-08-10T00:39:04.602Z,0
2018-08-10T00:39:36.686Z,0
2018-08-10T00:40:08.773Z,0
2018-08-10T00:42:00.442Z,0
2018-08-10T00:42:32.553Z,0
2018-08-10T00:43:04.671Z,0
2018-08-10T00:44:56.247Z,0
2018-08-10T00:45:28.339Z,0
2018-08-10T00:47:19.858Z,0
2018-08-10T00:47:51.946Z,0
2018-08-10T00:48:24.033Z,0
2018-08-10T00:48:56.123Z,0
2018-08-10T00:49:28.188Z,0
2018-08-10T00:50:00.274Z,0
2018-08-10T00:50:32.347Z,0
2018-08-10T00:53:43.774Z,0
2018-08-10T00:54:15.865Z,0
2018-08-10T00:54:47.958Z,0
2018-08-10T00:55:20.046Z,0
2018-08-10T00:55:52.126Z,0
2018-08-10T00:56:24.211Z,0
2018-08-10T00:56:56.277Z,0
2018-08-10T00:57:28.346Z,0
2018-08-10T00:59:19.702Z,0
2018-08-10T00:59:51.805Z,0
2018-08-10T01:00:23.860Z,0
2018-08-10T01:00:55.960Z,0
2018-08-10T01:01:28.050Z,0
2018-08-10T01:02:00.150Z,0
2018-08-10T01:02:32.225Z,0
2018-08-10T01:03:04.316Z,0
2018-08-10T01:03:36.399Z,0
2018-08-10T01:04:08.490Z,0
2018-08-10T01:04:40.598Z,0
2018-08-10T01:05:12.693Z,0
2018-08-10T01:05:44.762Z,0
2018-08-10T01:06:16.855Z,0
2018-08-10T01:06:48.928Z,0
2018-08-10T01:07:21.010Z,0
2018-08-10T01:07:53.110Z,0
2018-08-10T01:08:25.187Z,0
2018-08-10T01:08:57.300Z,0
2018-08-10T01:09:29.396Z,0
2018-08-10T01:10:01.488Z,0
2018-08-10T01:10:33.572Z,0
2018-08-10T01:11:05.670Z,0
2018-08-10T01:11:37.779Z,0
2018-08-10T01:12:09.866Z,0
2018-08-10T01:12:41.961Z,0
2018-08-10T01:13:14.113Z,0
2018-08-10T01:13:46.150Z,0
2018-08-10T01:14:18.232Z,0
2018-08-10T01:14:50.320Z,0
2018-08-10T01:15:22.408Z,0
2018-08-10T01:15:54.494Z,0
2018-08-10T01:16:26.593Z,0
2018-08-10T01:16:58.679Z,0
2018-08-10T01:17:30.768Z,0
2018-08-10T01:18:02.849Z,0
2018-08-10T01:18:34.936Z,0
2018-08-10T01:19:07.062Z,0
2018-08-10T01:20:58.464Z,0
2018-08-10T01:21:30.548Z,0
2018-08-10T01:23:22.139Z,0
2018-08-10T01:23:54.247Z,0
2018-08-10T01:24:26.341Z,0
2018-08-10T01:24:58.446Z,0
2018-08-10T01:26:49.885Z,0
2018-08-10T01:27:21.990Z,0
2018-08-10T01:27:54.069Z,0
2018-08-10T01:28:26.247Z,0
2018-08-10T01:28:58.352Z,0
2018-08-10T01:29:30.348Z,0
2018-08-10T01:30:02.412Z,0
2018-08-10T01:31:53.972Z,0
2018-08-10T01:32:26.081Z,0
2018-08-10T01:32:58.163Z,0
2018-08-10T01:33:30.261Z,0
2018-08-10T01:35:21.789Z,0
2018-08-10T01:35:53.850Z,0
2018-08-10T01:37:45.223Z,0
2018-08-10T01:38:17.325Z,0
2018-08-10T01:38:49.410Z,0
2018-08-10T01:39:21.525Z,0
2018-08-10T01:39:53.620Z,0
2018-08-10T01:40:25.711Z,0
2018-08-10T01:40:57.793Z,0
2018-08-10T01:41:29.884Z,0
2018-08-10T01:42:01.976Z,0
2018-08-10T01:42:34.068Z,0
2018-08-10T01:43:06.150Z,0
2018-08-10T01:43:38.208Z,0
2018-08-10T01:44:10.301Z,0
2018-08-10T01:44:42.399Z,0
2018-08-10T01:45:14.460Z,0
2018-08-10T01:45:46.540Z,0
2018-08-10T01:46:18.614Z,0
2018-08-10T01:46:50.705Z,0
2018-08-10T01:47:22.793Z,0
2018-08-10T01:47:54.853Z,0
2018-08-10T01:48:26.914Z,0
2018-08-10T01:48:59.010Z,0
2018-08-10T01:49:31.122Z,0
2018-08-10T01:50:03.202Z,0
2018-08-10T01:50:35.318Z,0
2018-08-10T01:51:07.400Z,0
2018-08-10T01:51:39.504Z,0
2018-08-10T01:52:11.597Z,0
2018-08-10T01:54:03.231Z,0
2018-08-10T01:54:35.332Z,0
2018-08-10T01:55:07.401Z,0
2018-08-10T01:55:39.495Z,0
2018-08-10T01:56:11.582Z,0
2018-08-10T01:56:43.663Z,0
2018-08-10T01:57:15.727Z,0
2018-08-10T01:57:47.846Z,0
2018-08-10T01:58:19.917Z,0
2018-08-10T01:58:51.976Z,0
2018-08-10T01:59:24.057Z,0
2018-08-10T01:59:56.147Z,0
2018-08-10T02:00:28.210Z,0
2018-08-10T02:01:00.314Z,0
2018-08-10T02:01:32.415Z,0
2018-08-10T02:04:43.415Z,0
2018-08-10T02:05:15.520Z,0
2018-08-10T02:07:07.159Z,0
2018-08-10T02:08:58.794Z,0
2018-08-10T02:09:30.879Z,0
2018-08-10T02:10:02.973Z,0
2018-08-10T02:10:35.046Z,0
2018-08-10T02:12:26.682Z,0
2018-08-10T02:12:58.763Z,0
2018-08-10T02:13:30.837Z,0
2018-08-10T02:14:02.945Z,0
2018-08-10T02:14:35.028Z,0
2018-08-10T02:15:07.139Z,0
2018-08-10T02:15:39.241Z,0
2018-08-10T02:16:11.334Z,0
2018-08-10T02:16:43.400Z,0
2018-08-10T02:17:15.482Z,0
2018-08-10T02:17:47.584Z,0
2018-08-10T02:18:19.653Z,0
2018-08-10T02:18:51.725Z,0
2018-08-10T02:19:23.826Z,0
2018-08-10T02:19:55.917Z,0
2018-08-10T02:20:27.979Z,0
2018-08-10T02:21:00.065Z,0
2018-08-10T02:21:32.168Z,0
2018-08-10T02:22:04.228Z,0
2018-08-10T02:23:55.911Z,0
2018-08-10T02:25:47.325Z,0
2018-08-10T02:26:19.404Z,0
2018-08-10T02:26:51.508Z,0
2018-08-10T02:28:43.008Z,0
2018-08-10T02:30:34.423Z,0
2018-08-10T02:31:06.503Z,0
2018-08-10T02:32:57.848Z,0
2018-08-10T02:33:29.948Z,0
2018-08-10T02:34:02.051Z,0
2018-08-10T02:35:53.838Z,0
2018-08-10T02:36:25.921Z,0
2018-08-10T02:36:58.021Z,0
2018-08-10T02:37:30.099Z,0
2018-08-10T02:38:02.193Z,0
2018-08-10T02:38:34.272Z,0
2018-08-10T02:39:06.352Z,0
2018-08-10T02:39:38.454Z,0
2018-08-10T02:40:10.541Z,0
2018-08-10T02:40:42.622Z,0
2018-08-10T02:41:14.717Z,0
2018-08-10T02:41:46.813Z,0
2018-08-10T02:42:18.885Z,0
2018-08-10T02:42:50.978Z,0
2018-08-10T02:43:23.081Z,0
2018-08-10T02:43:55.162Z,0
2018-08-10T02:44:27.267Z,0
2018-08-10T02:44:59.345Z,0
2018-08-10T02:45:31.450Z,0
2018-08-10T02:46:03.564Z,0
2018-08-10T02:46:35.607Z,0
2018-08-10T02:47:07.721Z,0
2018-08-10T02:47:39.821Z,0
2018-08-10T02:48:11.885Z,0
2018-08-10T02:48:43.954Z,0
2018-08-10T02:50:35.520Z,0
2018-08-10T02:51:07.583Z,0
2018-08-10T02:51:39.672Z,0
2018-08-10T02:52:11.756Z,0
2018-08-10T02:52:43.851Z,0
2018-08-10T02:53:15.958Z,0
2018-08-10T02:56:26.523Z,0
2018-08-10T02:56:58.614Z,0
2018-08-10T02:57:30.720Z,0
2018-08-10T02:58:02.812Z,0
2018-08-10T02:58:34.912Z,0
2018-08-10T02:59:07.026Z,0
2018-08-10T02:59:39.123Z,0
2018-08-10T03:00:11.216Z,0
2018-08-10T03:00:43.289Z,0
2018-08-10T03:01:15.367Z,0
2018-08-10T03:01:47.477Z,0
2018-08-10T03:02:19.561Z,0
2018-08-10T03:02:51.653Z,0
2018-08-10T03:03:23.778Z,0
2018-08-10T03:03:55.846Z,0
2018-08-10T03:04:27.942Z,0
2018-08-10T03:06:19.716Z,0
2018-08-10T03:06:51.811Z,0
2018-08-10T03:07:23.903Z,0
2018-08-10T03:07:55.980Z,0
2018-08-10T03:08:28.056Z,0
2018-08-10T03:09:00.139Z,0
2018-08-10T03:09:32.213Z,0
2018-08-10T03:10:04.275Z,0
2018-08-10T03:10:36.364Z,0
2018-08-10T03:11:08.425Z,0
2018-08-10T03:11:40.524Z,0
2018-08-10T03:12:12.587Z,0
2018-08-10T03:12:44.743Z,0
2018-08-10T03:13:16.765Z,0
2018-08-10T03:13:48.850Z,0
2018-08-10T03:14:20.930Z,0
2018-08-10T03:14:53.037Z,0
2018-08-10T03:15:25.141Z,0
2018-08-10T03:17:16.537Z,0
2018-08-10T03:19:07.955Z,0
2018-08-10T03:19:40.050Z,0
2018-08-10T03:21:31.713Z,0
2018-08-10T03:22:03.830Z,0
2018-08-10T03:22:35.871Z,0
2018-08-10T03:24:27.229Z,0
2018-08-10T03:24:59.303Z,0
2018-08-10T03:25:31.382Z,0
2018-08-10T03:26:03.467Z,0
2018-08-10T03:26:35.588Z,0
2018-08-10T03:27:07.669Z,0
2018-08-10T03:27:39.774Z,0
2018-08-10T03:28:11.854Z,0
2018-08-10T03:28:43.936Z,0
2018-08-10T03:29:16.018Z,0
2018-08-10T03:31:07.726Z,0
2018-08-10T03:31:39.774Z,0
2018-08-10T03:32:11.865Z,0
2018-08-10T03:32:43.929Z,0
2018-08-10T03:33:16.030Z,0
2018-08-10T03:33:48.137Z,0
2018-08-10T03:34:20.234Z,0
2018-08-10T03:34:52.270Z,0
2018-08-10T03:35:24.380Z,0
2018-08-10T03:35:56.492Z,0
2018-08-10T03:36:28.554Z,0
2018-08-10T03:37:00.629Z,0
2018-08-10T03:37:32.696Z,0
2018-08-10T03:38:04.754Z,0
2018-08-10T03:38:36.879Z,0
2018-08-10T03:40:28.545Z,0
2018-08-10T03:41:00.628Z,0
2018-08-10T03:41:32.673Z,0
2018-08-10T03:42:04.749Z,0
2018-08-10T03:43:56.053Z,0
2018-08-10T03:45:47.459Z,0
2018-08-10T03:46:19.506Z,0
2018-08-10T03:48:11.315Z,0
2018-08-10T03:48:43.402Z,0
2018-08-10T03:49:15.487Z,0
2018-08-10T03:49:47.600Z,0
2018-08-10T03:50:19.657Z,0
2018-08-10T03:50:51.748Z,0
2018-08-10T03:51:23.858Z,0
2018-08-10T03:51:55.933Z,0
2018-08-10T03:52:28.028Z,0
2018-08-10T03:53:00.098Z,0
2018-08-10T03:53:32.190Z,0
2018-08-10T03:54:04.305Z,0
2018-08-10T03:54:36.377Z,0
2018-08-10T03:55:08.451Z,0
2018-08-10T03:55:40.550Z,0
2018-08-10T03:56:12.646Z,0
2018-08-10T03:58:04.054Z,0
2018-08-10T03:58:36.144Z,0
2018-08-10T03:59:08.254Z,0
2018-08-10T03:59:40.320Z,0
2018-08-10T04:00:12.413Z,0
2018-08-10T04:00:44.468Z,0
2018-08-10T04:02:35.979Z,0
2018-08-10T04:03:08.082Z,0
2018-08-10T04:03:40.154Z,0
2018-08-10T04:04:12.238Z,0
2018-08-10T04:06:03.894Z,0
2018-08-10T04:06:35.976Z,0
2018-08-10T04:07:08.067Z,0
2018-08-10T04:08:59.823Z,0
2018-08-10T04:09:31.887Z,0
2018-08-10T04:10:03.952Z,0
2018-08-10T04:10:36.041Z,0
2018-08-10T04:12:27.566Z,0
2018-08-10T04:12:59.645Z,0
2018-08-10T04:13:31.730Z,0
2018-08-10T04:14:03.805Z,0
2018-08-10T04:14:35.877Z,0
2018-08-10T04:15:07.972Z,0
2018-08-10T04:15:40.069Z,0
2018-08-10T04:16:12.172Z,0
2018-08-10T04:16:44.256Z,0
2018-08-10T04:17:16.340Z,0
2018-08-10T04:17:48.416Z,0
2018-08-10T04:18:20.522Z,0
2018-08-10T04:18:52.605Z,0
2018-08-10T04:19:24.701Z,0
2018-08-10T04:19:56.777Z,0
2018-08-10T04:20:28.859Z,0
2018-08-10T04:21:00.960Z,0
2018-08-10T04:21:33.067Z,0
2018-08-10T04:22:05.153Z,0
2018-08-10T04:22:37.246Z,0
2018-08-10T04:23:09.350Z,0
2018-08-10T04:23:41.424Z,0
2018-08-10T04:24:13.497Z,0
2018-08-10T04:24:45.586Z,0
2018-08-10T04:25:17.677Z,5
2018-08-10T04:25:49.772Z,5
2018-08-10T04:27:41.509Z,10
2018-08-10T04:28:13.581Z,10
2018-08-10T04:28:45.678Z,10
2018-08-10T04:30:37.408Z,10
2018-08-10T04:31:09.504Z,10
2018-08-10T04:31:41.586Z,10
2018-08-10T04:32:13.665Z,10
2018-08-10T04:32:45.723Z,10
2018-08-10T04:34:37.084Z,10
2018-08-10T04:35:09.176Z,10
2018-08-10T04:35:41.258Z,10
2018-08-10T04:36:13.314Z,10
2018-08-10T04:36:45.407Z,10
2018-08-10T04:37:17.488Z,10
2018-08-10T04:37:53.377Z,10
2018-08-10T04:38:25.562Z,10
2018-08-10T04:38:57.548Z,10
2018-08-10T04:39:29.642Z,10
2018-08-10T04:40:01.740Z,10
2018-08-10T04:40:33.844Z,10
2018-08-10T04:41:05.923Z,10
2018-08-10T04:41:38.015Z,10
2018-08-10T04:42:10.068Z,10
2018-08-10T04:42:42.142Z,15
2018-08-10T04:43:14.230Z,15
2018-08-10T04:43:46.319Z,10
2018-08-10T04:44:18.406Z,10
2018-08-10T04:44:50.507Z,10
2018-08-10T04:45:22.572Z,10
2018-08-10T04:45:54.669Z,10
2018-08-10T04:46:26.757Z,10
2018-08-10T04:46:58.845Z,10
2018-08-10T04:47:30.929Z,10
2018-08-10T04:48:03.108Z,10
2018-08-10T04:48:35.201Z,5
2018-08-10T04:49:07.294Z,10
2018-08-10T04:49:39.390Z,5
2018-08-10T04:50:11.473Z,5
2018-08-10T04:50:43.572Z,5
2018-08-10T04:51:15.666Z,5
2018-08-10T04:51:47.747Z,5
2018-08-10T04:53:39.228Z,10
2018-08-10T04:55:30.951Z,15
2018-08-10T04:56:03.040Z,15
2018-08-10T04:56:35.134Z,15
2018-08-10T04:57:07.221Z,15
2018-08-10T04:57:39.318Z,10
2018-08-10T04:59:30.865Z,10
2018-08-10T05:00:02.942Z,10
2018-08-10T05:00:34.982Z,15
2018-08-10T05:01:07.056Z,15
2018-08-10T05:01:39.138Z,15
2018-08-10T05:02:11.305Z,20
2018-08-10T05:02:43.395Z,20
2018-08-10T05:03:15.479Z,20
2018-08-10T05:05:06.860Z,20
2018-08-10T05:05:38.917Z,25
2018-08-10T05:06:11.013Z,25
2018-08-10T05:06:43.095Z,20
2018-08-10T05:07:15.166Z,25
2018-08-10T05:07:47.256Z,25
2018-08-10T05:08:19.348Z,25
2018-08-10T05:08:51.445Z,20
2018-08-10T05:09:23.543Z,20
2018-08-10T05:09:55.640Z,20
2018-08-10T05:10:27.723Z,30
2018-08-10T05:10:59.797Z,20
2018-08-10T05:11:31.864Z,20
2018-08-10T05:12:03.944Z,20
2018-08-10T05:12:35.999Z,15
2018-08-10T05:14:27.523Z,20
2018-08-10T05:14:59.610Z,20
2018-08-10T05:16:51.277Z,25
2018-08-10T05:17:23.359Z,25
2018-08-10T05:17:55.447Z,25
2018-08-10T05:18:27.527Z,25
2018-08-10T05:18:59.585Z,30
2018-08-10T05:19:31.670Z,30
2018-08-10T05:20:03.749Z,30
2018-08-10T05:21:55.443Z,35
2018-08-10T05:22:27.529Z,35
2018-08-10T05:22:59.620Z,35
2018-08-10T05:23:31.706Z,30
2018-08-10T05:24:03.812Z,30
2018-08-10T05:25:55.323Z,35
2018-08-10T05:26:27.360Z,35
2018-08-10T05:26:59.439Z,30
2018-08-10T05:27:31.482Z,30
2018-08-10T05:28:03.577Z,35
2018-08-10T05:28:35.668Z,35
2018-08-10T05:29:07.749Z,35
2018-08-10T05:30:59.518Z,35
2018-08-10T05:31:31.580Z,40
2018-08-10T05:32:03.631Z,40
2018-08-10T05:32:35.668Z,40
2018-08-10T05:33:07.747Z,70
2018-08-10T05:33:39.816Z,65
2018-08-10T05:34:11.888Z,40
2018-08-10T05:34:44.019Z,65
2018-08-10T05:36:35.622Z,90
2018-08-10T05:37:07.719Z,95
2018-08-10T05:37:39.814Z,100
2018-08-10T05:38:11.903Z,100
2018-08-10T05:38:44.184Z,100
2018-08-10T05:39:20.208Z,100
2018-08-10T05:39:52.309Z,105
2018-08-10T05:40:24.418Z,105
2018-08-10T05:40:56.470Z,90
2018-08-10T05:41:28.577Z,100
2018-08-10T05:42:00.642Z,105
2018-08-10T05:42:35.238Z,55
2018-08-10T05:43:07.274Z,105
2018-08-10T05:43:39.338Z,105
2018-08-10T05:44:11.398Z,105
2018-08-10T05:44:43.483Z,105
2018-08-10T05:45:15.531Z,105
2018-08-10T05:45:47.605Z,105
2018-08-10T05:46:19.649Z,65
2018-08-10T05:46:51.805Z,110
2018-08-10T05:47:23.815Z,105
2018-08-10T05:47:55.956Z,75
2018-08-10T05:48:27.944Z,110
2018-08-10T05:48:59.960Z,105
2018-08-10T05:49:32.030Z,110
2018-08-10T05:50:04.110Z,110
2018-08-10T05:50:36.164Z,110
2018-08-10T05:51:08.247Z,85
2018-08-10T05:51:40.237Z,110
2018-08-10T05:52:12.281Z,105
2018-08-10T05:52:44.345Z,110
2018-08-10T05:53:16.388Z,110
2018-08-10T05:53:48.399Z,110
2018-08-10T05:54:20.471Z,85
2018-08-10T05:54:53.442Z,90
2018-08-10T05:55:25.515Z,115
2018-08-10T05:55:57.556Z,110
2018-08-10T05:56:29.604Z,70
2018-08-10T05:57:01.650Z,110
2018-08-10T05:57:34.314Z,115
2018-08-10T05:58:06.386Z,115
2018-08-10T05:58:38.466Z,115
2018-08-10T05:59:10.500Z,115
2018-08-10T05:59:42.572Z,115
2018-08-10T06:00:14.600Z,115
2018-08-10T06:00:46.793Z,115
2018-08-10T06:01:18.702Z,115
2018-08-10T06:01:50.781Z,115
2018-08-10T06:02:22.809Z,115
2018-08-10T06:02:54.899Z,115
2018-08-10T06:03:26.992Z,115
2018-08-10T06:03:59.535Z,115
2018-08-10T06:04:31.424Z,115
2018-08-10T06:05:03.504Z,115
2018-08-10T06:05:35.592Z,115
2018-08-10T06:06:07.684Z,115
2018-08-10T06:06:39.722Z,115
2018-08-10T06:07:11.777Z,115
2018-08-10T06:07:43.865Z,120
2018-08-10T06:08:15.876Z,120
2018-08-10T06:08:47.999Z,120
2018-08-10T06:09:20.030Z,120
2018-08-10T06:09:52.149Z,120
2018-08-10T06:10:24.246Z,120
2018-08-10T06:10:56.334Z,120
2018-08-10T06:11:28.411Z,120
2018-08-10T06:12:00.592Z,125
2018-08-10T06:12:32.734Z,125
2018-08-10T06:13:04.962Z,125
2018-08-10T06:13:36.947Z,125
2018-08-10T06:14:09.038Z,85
2018-08-10T06:14:41.091Z,105
2018-08-10T06:15:13.135Z,120
2018-08-10T06:15:45.248Z,100
2018-08-10T06:16:17.293Z,70
2018-08-10T06:16:49.341Z,115
2018-08-10T06:17:21.374Z,125
2018-08-10T06:17:53.424Z,60
2018-08-10T06:18:25.442Z,125
2018-08-10T06:18:57.504Z,125
2018-08-10T06:19:29.616Z,125
2018-08-10T06:20:02.216Z,125
2018-08-10T06:20:34.194Z,130
2018-08-10T06:21:06.344Z,130
2018-08-10T06:21:38.486Z,130
2018-08-10T06:22:10.468Z,130
2018-08-10T06:22:42.515Z,130
2018-08-10T06:23:14.555Z,130
2018-08-10T06:23:46.676Z,130
2018-08-10T06:24:18.762Z,130
2018-08-10T06:24:50.873Z,100
2018-08-10T06:25:22.876Z,120
2018-08-10T06:25:54.931Z,130
2018-08-10T06:26:26.968Z,80
2018-08-10T06:26:58.968Z,135
2018-08-10T06:27:31.028Z,130
2018-08-10T06:28:03.125Z,135
2018-08-10T06:28:35.268Z,135
2018-08-10T06:29:08.248Z,135
2018-08-10T06:29:40.337Z,135
2018-08-10T06:30:13.036Z,135
2018-08-10T06:30:45.060Z,135
2018-08-10T06:31:17.163Z,135
2018-08-10T06:31:49.206Z,135
2018-08-10T06:32:21.279Z,135
2018-08-10T06:32:53.299Z,135
2018-08-10T06:33:25.435Z,135
2018-08-10T06:33:57.566Z,135
2018-08-10T06:34:29.549Z,135
2018-08-10T06:35:01.583Z,130
2018-08-10T06:35:33.645Z,135
2018-08-10T06:36:05.730Z,135
2018-08-10T06:36:37.784Z,135
2018-08-10T06:37:10.009Z,135
2018-08-10T06:37:42.123Z,135
2018-08-10T06:38:14.141Z,135
2018-08-10T06:38:46.225Z,140
2018-08-10T06:39:18.235Z,140
2018-08-10T06:39:50.413Z,140
2018-08-10T06:40:22.426Z,135
2018-08-10T06:40:54.480Z,140
2018-08-10T06:41:26.624Z,140
2018-08-10T06:41:58.657Z,140
2018-08-10T06:42:30.707Z,140
2018-08-10T06:43:02.708Z,140
2018-08-10T06:43:34.781Z,140
2018-08-10T06:44:06.807Z,140
2018-08-10T06:44:38.896Z,140
2018-08-10T06:45:10.990Z,140
2018-08-10T06:45:43.067Z,140
2018-08-10T06:46:15.130Z,140
2018-08-10T06:46:47.221Z,140
2018-08-10T06:47:19.298Z,140
2018-08-10T06:47:51.345Z,140
2018-08-10T06:48:23.486Z,145
2018-08-10T06:48:55.522Z,135
2018-08-10T06:49:27.557Z,145
2018-08-10T06:50:00.265Z,145
2018-08-10T06:50:32.296Z,145
2018-08-10T06:51:04.414Z,150
2018-08-10T06:51:36.483Z,155
2018-08-10T06:52:08.644Z,155
2018-08-10T06:52:40.827Z,160
2018-08-10T06:53:13.037Z,165
2018-08-10T06:53:45.030Z,165
2018-08-10T06:54:17.085Z,165
2018-08-10T06:54:49.170Z,165
2018-08-10T06:55:21.242Z,155
2018-08-10T06:55:54.100Z,155
2018-08-10T06:56:25.907Z,155
2018-08-10T06:56:58.010Z,155
2018-08-10T06:57:30.107Z,150
2018-08-10T06:58:02.151Z,150
2018-08-10T06:58:34.214Z,150
2018-08-10T06:59:06.262Z,150
2018-08-10T06:59:38.316Z,150
2018-08-10T07:00:10.407Z,150
2018-08-10T07:00:42.644Z,150
2018-08-10T07:01:14.754Z,150
2018-08-10T07:01:46.792Z,150
2018-08-10T07:02:18.830Z,150
2018-08-10T07:02:50.912Z,150
2018-08-10T07:03:22.975Z,150
2018-08-10T07:03:55.181Z,150
2018-08-10T07:04:27.348Z,150
2018-08-10T07:04:59.413Z,155
2018-08-10T07:05:31.475Z,155
2018-08-10T07:06:03.574Z,155
2018-08-10T07:06:35.610Z,150
2018-08-10T07:07:08.394Z,150
2018-08-10T07:07:40.651Z,155
2018-08-10T07:08:12.586Z,150
2018-08-10T07:08:44.782Z,155
2018-08-10T07:09:16.925Z,155
2018-08-10T07:09:48.947Z,155
2018-08-10T07:10:21.001Z,155
2018-08-10T07:10:53.112Z,130
2018-08-10T07:11:25.170Z,115
2018-08-10T07:11:57.262Z,165
2018-08-10T07:12:29.290Z,160
2018-08-10T07:13:01.401Z,165
2018-08-10T07:13:33.490Z,160
2018-08-10T07:14:05.447Z,160
2018-08-10T07:14:37.492Z,165
2018-08-10T07:15:09.537Z,165
2018-08-10T07:15:41.670Z,160
2018-08-10T07:16:13.709Z,75
2018-08-10T07:16:45.870Z,165
2018-08-10T07:17:17.988Z,165
2018-08-10T07:17:50.057Z,165
2018-08-10T07:18:22.119Z,165
2018-08-10T07:18:54.173Z,165
2018-08-10T07:19:26.204Z,165
2018-08-10T07:19:58.253Z,155
2018-08-10T07:20:30.331Z,165
2018-08-10T07:21:03.099Z,160
2018-08-10T07:21:35.226Z,130
2018-08-10T07:22:07.272Z,165
2018-08-10T07:22:39.308Z,110
2018-08-10T07:23:11.350Z,100
2018-08-10T07:23:43.500Z,160
2018-08-10T07:24:15.555Z,160
2018-08-10T07:24:47.635Z,155
2018-08-10T07:25:19.655Z,60
2018-08-10T07:25:51.693Z,60
2018-08-10T07:26:23.732Z,160
2018-08-10T07:26:55.780Z,155
2018-08-10T07:27:27.844Z,155
2018-08-10T07:27:59.900Z,155
2018-08-10T07:28:31.920Z,155
2018-08-10T07:29:04.015Z,160
2018-08-10T07:29:36.060Z,155
2018-08-10T07:30:08.147Z,155
2018-08-10T07:30:40.147Z,155
2018-08-10T07:31:12.188Z,160
2018-08-10T07:31:44.191Z,160
2018-08-10T07:32:16.269Z,160
2018-08-10T07:32:48.302Z,160
2018-08-10T07:33:20.415Z,165
2018-08-10T07:33:52.426Z,165
2018-08-10T07:34:24.456Z,165
2018-08-10T07:34:56.557Z,170
2018-08-10T07:35:28.689Z,170
2018-08-10T07:36:00.755Z,170
2018-08-10T07:36:32.797Z,170
2018-08-10T07:37:04.824Z,170
2018-08-10T07:37:36.983Z,165
2018-08-10T07:38:09.077Z,165
2018-08-10T07:38:41.219Z,165
2018-08-10T07:39:13.254Z,165
2018-08-10T07:39:45.331Z,165
2018-08-10T07:40:17.337Z,165
2018-08-10T07:40:49.417Z,165
2018-08-10T07:41:21.602Z,170
2018-08-10T07:41:53.861Z,170
2018-08-10T07:42:25.911Z,160
2018-08-10T07:42:57.953Z,160
2018-08-10T07:43:29.971Z,100
2018-08-10T07:44:02.070Z,180
2018-08-10T07:44:34.191Z,175
2018-08-10T07:45:06.246Z,175
2018-08-10T07:45:38.333Z,175
2018-08-10T07:46:10.409Z,175
2018-08-10T07:46:42.417Z,170
2018-08-10T07:47:14.481Z,175
2018-08-10T07:47:46.631Z,175
2018-08-10T07:48:18.677Z,170
2018-08-10T07:48:50.796Z,170
2018-08-10T07:49:22.866Z,170
2018-08-10T07:49:55.956Z,170
2018-08-10T07:50:28.005Z,175
2018-08-10T07:51:00.070Z,85
2018-08-10T07:51:32.144Z,185
2018-08-10T07:52:04.332Z,190
2018-08-10T07:52:36.385Z,200
2018-08-10T07:53:08.444Z,200
2018-08-10T07:53:40.491Z,195
2018-08-10T07:54:12.535Z,190
2018-08-10T07:54:44.568Z,185
2018-08-10T07:55:17.502Z,160
2018-08-10T07:55:49.693Z,190
2018-08-10T07:56:21.706Z,185
2018-08-10T07:56:53.759Z,190
2018-08-10T07:57:25.773Z,185
2018-08-10T07:57:57.873Z,180
2018-08-10T07:58:30.070Z,180
2018-08-10T07:59:02.299Z,180
2018-08-10T07:59:34.407Z,180
2018-08-10T08:00:06.457Z,175
2018-08-10T08:00:38.507Z,180
2018-08-10T08:01:10.510Z,170
2018-08-10T08:01:42.554Z,175
2018-08-10T08:02:14.642Z,220
2018-08-10T08:02:46.775Z,220
2018-08-10T08:03:19.157Z,225
2018-08-10T08:03:51.121Z,230
2018-08-10T08:04:23.221Z,230
2018-08-10T08:04:55.256Z,225
2018-08-10T08:05:27.314Z,225
2018-08-10T08:05:59.451Z,230
2018-08-10T08:06:31.519Z,235
2018-08-10T08:07:03.700Z,240
2018-08-10T08:07:35.759Z,235
2018-08-10T08:08:07.779Z,240
2018-08-10T08:08:40.129Z,245
2018-08-10T08:09:12.174Z,240
2018-08-10T08:09:44.324Z,240
2018-08-10T08:10:16.486Z,235
2018-08-10T08:10:48.636Z,230
2018-08-10T08:11:20.661Z,235
2018-08-10T08:11:52.696Z,240
2018-08-10T08:12:24.697Z,235
2018-08-10T08:12:56.774Z,230
2018-08-10T08:13:28.791Z,230
2018-08-10T08:14:00.849Z,235
2018-08-10T08:14:32.896Z,240
2018-08-10T08:15:04.978Z,245
2018-08-10T08:15:37.030Z,240
2018-08-10T08:16:09.056Z,240
2018-08-10T08:16:41.094Z,240
2018-08-10T08:17:13.146Z,240
2018-08-10T08:17:45.213Z,235
2018-08-10T08:18:17.256Z,235
2018-08-10T08:18:49.289Z,240
2018-08-10T08:19:21.614Z,245
2018-08-10T08:19:53.694Z,245
2018-08-10T08:20:25.665Z,240
2018-08-10T08:20:57.657Z,235
2018-08-10T08:21:29.690Z,225
2018-08-10T08:22:01.704Z,220
2018-08-10T08:22:33.748Z,220
2018-08-10T08:23:05.812Z,115
2018-08-10T08:23:37.846Z,185
2018-08-10T08:24:09.895Z,165
2018-08-10T08:24:41.976Z,125
2018-08-10T08:25:14.104Z,95
2018-08-10T08:25:46.129Z,215
2018-08-10T08:26:18.164Z,220
2018-08-10T08:26:50.277Z,135
2018-08-10T08:27:22.323Z,200
2018-08-10T08:27:54.360Z,210
2018-08-10T08:28:26.377Z,205
2018-08-10T08:28:58.414Z,205
2018-08-10T08:29:30.480Z,205
2018-08-10T08:30:02.508Z,200
2018-08-10T08:30:34.648Z,200
2018-08-10T08:31:06.702Z,195
2018-08-10T08:31:38.924Z,205
2018-08-10T08:32:11.011Z,200
2018-08-10T08:32:43.350Z,180
2018-08-10T08:33:15.399Z,190
2018-08-10T08:33:47.465Z,200
2018-08-10T08:34:20.280Z,200
2018-08-10T08:34:52.808Z,200
2018-08-10T08:35:24.764Z,200
2018-08-10T08:35:56.784Z,190
2018-08-10T08:36:28.827Z,200
2018-08-10T08:37:01.148Z,200
2018-08-10T08:37:33.105Z,180
2018-08-10T08:38:05.128Z,200
2018-08-10T08:38:37.957Z,110
2018-08-10T08:39:09.989Z,210
2018-08-10T08:39:42.046Z,205
2018-08-10T08:40:14.082Z,210
2018-08-10T08:40:46.205Z,210
2018-08-10T08:41:18.262Z,210
2018-08-10T08:41:50.272Z,215
2018-08-10T08:42:22.359Z,215
2018-08-10T08:42:54.396Z,215
2018-08-10T08:43:27.045Z,215
2018-08-10T08:43:59.143Z,215
2018-08-10T08:44:31.314Z,215
2018-08-10T08:45:03.389Z,210
2018-08-10T08:45:35.624Z,215
2018-08-10T08:46:08.231Z,210
2018-08-10T08:46:40.618Z,165
2018-08-10T08:47:12.485Z,210
2018-08-10T08:47:44.582Z,205
2018-08-10T08:48:16.633Z,205
2018-08-10T08:48:48.675Z,205
2018-08-10T08:49:20.768Z,130
2018-08-10T08:49:52.763Z,165
2018-08-10T08:50:24.954Z,210
2018-08-10T08:50:57.027Z,205
2018-08-10T08:51:29.140Z,205
2018-08-10T08:52:01.329Z,205
2018-08-10T08:52:33.493Z,205
2018-08-10T08:53:05.680Z,210
2018-08-10T08:53:37.738Z,210
2018-08-10T08:54:10.021Z,210
2018-08-10T08:54:42.118Z,205
2018-08-10T08:55:14.214Z,200
2018-08-10T08:55:46.440Z,200
2018-08-10T08:56:18.645Z,200
2018-08-10T08:56:50.691Z,200
2018-08-10T08:57:23.143Z,195
2018-08-10T08:57:55.081Z,195